Time;durP1;ratioP1;P1;durP2;ratioP2;P2;SDS_P1;SDS_P2;PMS_P1;PMS_P2;Temp;Humidity;BMP_temperature;BMP_pressure;BME280_temperature;BME280_humidity;BME280_pressure;Samples;Min_cycle;Max_cycle;Signal;HPM_P1;HPM_P2
2023/03/20 00:01:16;;;;;;;6.22;4.90;;;;;;;;;;5028853;28;20548;-67
2023/03/20 00:03:41;;;;;;;5.95;5.25;;;;;;;;;;5061150;28;20036;-74
2023/03/20 00:06:16;;;;;;;5.47;4.88;;;;;;;;;;5048034;28;20633;-66
2023/03/20 00:08:44;;;;;;;6.40;5.10;;;;;;;;;;5047048;28;20082;-68
2023/03/20 00:11:27;;;;;;;5.57;4.43;;;;;;;;;;5051328;28;20486;-68
2023/03/20 00:13:56;;;;;;;6.30;4.57;;;;;;;;;;5047669;28;20513;-71
2023/03/20 00:16:22;;;;;;;6.63;4.75;;;;;;;;;;5027954;28;20036;-69
2023/03/20 00:18:47;;;;;;;6.57;4.70;;;;;;;;;;5027200;28;20059;-71
2023/03/20 00:21:15;;;;;;;5.65;4.40;;;;;;;;;;5039230;28;20908;-68
2023/03/20 00:23:41;;;;;;;5.97;4.55;;;;;;;;;;5042926;28;20485;-69
2023/03/20 00:26:07;;;;;;;6.18;4.50;;;;;;;;;;5067825;28;20032;-69
2023/03/20 00:28:39;;;;;;;5.82;4.50;;;;;;;;;;5044582;28;20049;-67
2023/03/20 00:31:05;;;;;;;7.00;4.50;;;;;;;;;;5034362;28;20090;-66
2023/03/20 00:33:30;;;;;;;6.68;4.90;;;;;;;;;;5029560;28;20119;-67
2023/03/20 00:35:57;;;;;;;6.47;4.73;;;;;;;;;;5051345;28;20516;-70
2023/03/20 00:38:23;;;;;;;7.03;5.25;;;;;;;;;;5051398;28;20820;-70
2023/03/20 00:40:48;;;;;;;6.70;4.90;;;;;;;;;;5019646;28;20028;-70
2023/03/20 00:43:14;;;;;;;6.07;4.53;;;;;;;;;;5052549;28;20841;-66
2023/03/20 00:45:40;;;;;;;6.10;4.38;;;;;;;;;;5034479;28;20017;-70
2023/03/20 00:48:05;;;;;;;5.57;4.40;;;;;;;;;;5034892;28;20554;-68
2023/03/20 00:50:30;;;;;;;5.55;4.72;;;;;;;;;;5032415;28;20279;-70
2023/03/20 00:52:56;;;;;;;7.57;4.78;;;;;;;;;;5031095;28;20048;-70
2023/03/20 00:55:22;;;;;;;6.35;4.90;;;;;;;;;;5030005;28;20037;-67
2023/03/20 00:57:51;;;;;;;6.50;4.88;;;;;;;;;;5029181;28;20032;-68
2023/03/20 01:00:16;;;;;;;6.28;4.60;;;;;;;;;;5032144;28;20025;-71
2023/03/20 01:02:41;;;;;;;6.20;4.60;;;;;;;;;;5053026;28;20096;-73
2023/03/20 01:05:07;;;;;;;6.43;4.80;;;;;;;;;;5014683;28;20766;-70
2023/03/20 01:07:32;;;;;;;5.38;4.60;;;;;;;;;;5043912;28;21789;-70
2023/03/20 01:09:57;;;;;;;6.80;4.70;;;;;;;;;;5045595;28;20580;-67
2023/03/20 01:12:23;;;;;;;6.47;4.83;;;;;;;;;;5047469;28;20048;-65
2023/03/20 01:14:50;;;;;;;6.32;4.78;;;;;;;;;;5029658;28;20295;-70
2023/03/20 01:17:19;;;;;;;7.35;4.80;;;;;;;;;;5012482;28;20125;-69
2023/03/20 01:19:44;;;;;;;5.85;4.70;;;;;;;;;;5051179;28;20182;-70
2023/03/20 01:22:10;;;;;;;6.47;4.97;;;;;;;;;;5034007;28;20713;-68
2023/03/20 01:24:35;;;;;;;6.88;4.25;;;;;;;;;;5045900;28;20796;-66
2023/03/20 01:27:02;;;;;;;6.67;5.27;;;;;;;;;;5047504;28;20067;-72
2023/03/20 01:29:29;;;;;;;6.18;4.68;;;;;;;;;;5045805;28;20278;-70
2023/03/20 01:31:54;;;;;;;6.90;4.95;;;;;;;;;;5047723;28;20036;-70
2023/03/20 01:34:20;;;;;;;5.95;4.65;;;;;;;;;;5017498;28;20507;-68
2023/03/20 01:36:54;;;;;;;6.90;5.32;;;;;;;;;;5025736;28;20501;-61
2023/03/20 01:39:20;;;;;;;6.38;4.55;;;;;;;;;;5035834;28;20040;-71
2023/03/20 01:41:46;;;;;;;6.45;4.68;;;;;;;;;;5026442;28;20575;-69
2023/03/20 01:44:21;;;;;;;6.30;4.80;;;;;;;;;;5051742;28;20044;-66
2023/03/20 01:46:47;;;;;;;6.05;4.78;;;;;;;;;;5012671;28;20605;-67
2023/03/20 01:49:19;;;;;;;6.22;4.35;;;;;;;;;;5033551;28;20128;-65
2023/03/20 01:51:44;;;;;;;6.53;4.53;;;;;;;;;;5032517;28;20043;-70
2023/03/20 01:54:12;;;;;;;7.35;4.70;;;;;;;;;;5031886;28;20612;-66
2023/03/20 01:56:38;;;;;;;6.68;4.90;;;;;;;;;;5030511;28;20102;-68
2023/03/20 01:59:14;;;;;;;7.63;4.95;;;;;;;;;;5011970;28;20033;-65
2023/03/20 02:01:39;;;;;;;7.00;5.13;;;;;;;;;;5015772;28;20096;-69
2023/03/20 02:04:05;;;;;;;6.05;4.65;;;;;;;;;;5016354;28;20076;-67
2023/03/20 02:06:30;;;;;;;5.60;4.30;;;;;;;;;;5045114;28;20048;-69
2023/03/20 02:08:55;;;;;;;6.87;5.10;;;;;;;;;;5048566;28;20033;-70
2023/03/20 02:11:22;;;;;;;6.43;4.55;;;;;;;;;;5013732;28;20688;-69
2023/03/20 02:13:48;;;;;;;6.95;4.93;;;;;;;;;;5010802;28;20128;-71
2023/03/20 02:16:14;;;;;;;6.57;4.68;;;;;;;;;;5026888;28;20056;-68
2023/03/20 02:18:40;;;;;;;6.18;4.38;;;;;;;;;;5008927;28;20492;-71
2023/03/20 02:21:05;;;;;;;6.07;4.80;;;;;;;;;;5028535;28;20047;-69
2023/03/20 02:23:51;;;;;;;5.87;4.50;;;;;;;;;;5049504;28;20128;-70
2023/03/20 02:26:21;;;;;;;7.55;5.10;;;;;;;;;;5015515;28;20346;-69
2023/03/20 02:28:46;;;;;;;6.32;4.78;;;;;;;;;;5014639;28;20025;-68
2023/03/20 02:31:11;;;;;;;6.25;4.60;;;;;;;;;;5048478;28;20047;-67
2023/03/20 02:33:46;;;;;;;6.23;4.87;;;;;;;;;;5047446;28;20060;-70
2023/03/20 02:36:18;;;;;;;6.75;4.80;;;;;;;;;;5026250;28;20168;-66
2023/03/20 02:38:55;;;;;;;6.20;4.85;;;;;;;;;;5026733;28;20104;-68
2023/03/20 02:41:32;;;;;;;6.75;4.80;;;;;;;;;;5025713;28;20032;-68
2023/03/20 02:44:15;;;;;;;7.13;5.05;;;;;;;;;;5011392;28;20059;-68
2023/03/20 02:46:41;;;;;;;6.15;4.90;;;;;;;;;;5045618;28;20037;-68
2023/03/20 02:49:13;;;;;;;6.72;5.07;;;;;;;;;;5057899;28;20044;-68
2023/03/20 02:51:51;;;;;;;5.50;4.47;;;;;;;;;;5032127;28;20598;-65
2023/03/20 02:54:16;;;;;;;6.05;4.47;;;;;;;;;;5026279;28;20041;-69
2023/03/20 02:56:48;;;;;;;6.70;4.80;;;;;;;;;;5066204;28;20113;-69
2023/03/20 02:59:31;;;;;;;6.78;4.95;;;;;;;;;;5066701;28;20036;-70
2023/03/20 03:01:59;;;;;;;5.93;4.53;;;;;;;;;;5066346;28;20135;-69
2023/03/20 03:04:28;;;;;;;6.38;4.50;;;;;;;;;;5066600;28;20048;-67
2023/03/20 03:06:54;;;;;;;6.35;4.50;;;;;;;;;;5065712;28;20048;-67
2023/03/20 03:09:24;;;;;;;5.38;4.63;;;;;;;;;;5031741;28;20083;-68
2023/03/20 03:11:51;;;;;;;6.30;4.88;;;;;;;;;;5040860;28;20033;-66
2023/03/20 03:14:20;;;;;;;6.40;4.90;;;;;;;;;;5054325;28;20056;-69
2023/03/20 03:16:45;;;;;;;8.05;4.95;;;;;;;;;;5032211;28;20060;-70
2023/03/20 03:19:15;;;;;;;7.95;4.93;;;;;;;;;;5003703;28;20071;-65
2023/03/20 03:21:40;;;;;;;;;;;;;;;;;;5029144;28;20021;-65
2023/03/20 03:24:06;;;;;;;6.60;4.85;;;;;;;;;;5058702;28;19962;-68
2023/03/20 03:26:33;;;;;;;6.30;4.63;;;;;;;;;;5047704;28;20523;-67
2023/03/20 03:29:00;;;;;;;5.60;4.53;;;;;;;;;;5022178;28;20804;-69
2023/03/20 03:31:25;;;;;;;7.32;5.10;;;;;;;;;;5045994;28;20040;-65
2023/03/20 03:33:52;;;;;;;5.65;4.30;;;;;;;;;;5036094;28;20549;-69
2023/03/20 03:36:36;;;;;;;6.18;4.78;;;;;;;;;;5036196;28;20029;-71
2023/03/20 03:39:10;;;;;;;6.45;4.60;;;;;;;;;;5054346;28;20032;-67
2023/03/20 03:41:43;;;;;;;6.93;5.10;;;;;;;;;;5033528;28;20086;-65
2023/03/20 03:44:11;;;;;;;7.20;5.10;;;;;;;;;;5042221;28;20041;-63
2023/03/20 03:47:03;;;;;;;7.35;5.05;;;;;;;;;;5035306;28;20038;-69
2023/03/20 03:49:29;;;;;;;6.35;4.97;;;;;;;;;;5051639;28;20068;-66
2023/03/20 03:51:56;;;;;;;6.35;4.80;;;;;;;;;;5009727;28;20041;-70
2023/03/20 03:54:29;;;;;;;6.75;5.20;;;;;;;;;;5025740;28;20037;-65
2023/03/20 03:56:55;;;;;;;6.97;5.07;;;;;;;;;;5015001;28;20516;-69
2023/03/20 03:59:25;;;;;;;6.93;4.85;;;;;;;;;;5036443;28;20052;-70
2023/03/20 04:01:50;;;;;;;6.63;5.03;;;;;;;;;;5046953;28;20119;-70
2023/03/20 04:04:15;;;;;;;6.78;4.65;;;;;;;;;;5047334;28;20139;-70
2023/03/20 04:06:41;;;;;;;6.20;4.68;;;;;;;;;;5047168;28;20035;-67
2023/03/20 04:09:06;;;;;;;6.13;4.65;;;;;;;;;;5040576;28;20093;-66
2023/03/20 04:11:31;;;;;;;5.75;4.60;;;;;;;;;;4998751;28;20041;-68
2023/03/20 04:13:56;;;;;;;7.27;5.30;;;;;;;;;;5023004;28;20575;-69
2023/03/20 04:16:22;;;;;;;5.50;4.32;;;;;;;;;;5011046;28;20275;-69
2023/03/20 04:18:47;;;;;;;7.25;5.32;;;;;;;;;;5049028;28;20025;-66
2023/03/20 04:21:14;;;;;;;5.85;4.22;;;;;;;;;;5032622;28;20481;-66
2023/03/20 04:23:39;;;;;;;6.20;4.85;;;;;;;;;;5058858;28;20028;-68
2023/03/20 04:26:05;;;;;;;6.67;4.60;;;;;;;;;;5018409;28;20038;-69
2023/03/20 04:28:30;;;;;;;6.47;4.57;;;;;;;;;;5002339;28;20489;-69
2023/03/20 04:30:56;;;;;;;6.10;4.73;;;;;;;;;;5026228;28;20036;-68
2023/03/20 04:33:21;;;;;;;6.68;5.00;;;;;;;;;;5041020;28;20338;-65
2023/03/20 04:35:47;;;;;;;7.65;4.85;;;;;;;;;;5045583;28;20037;-70
2023/03/20 04:38:12;;;;;;;6.17;4.80;;;;;;;;;;5026669;28;20030;-68
2023/03/20 04:40:37;;;;;;;6.80;4.70;;;;;;;;;;4995254;28;20276;-69
2023/03/20 04:43:03;;;;;;;6.47;4.70;;;;;;;;;;5020131;28;20516;-69
2023/03/20 04:45:28;;;;;;;5.72;4.95;;;;;;;;;;5011532;28;20032;-70
2023/03/20 04:47:53;;;;;;;6.07;4.70;;;;;;;;;;5023594;28;20060;-67
2023/03/20 04:50:18;;;;;;;6.67;5.07;;;;;;;;;;5024006;28;20283;-65
2023/03/20 04:52:44;;;;;;;6.45;4.60;;;;;;;;;;5035098;28;20379;-69
2023/03/20 04:55:09;;;;;;;6.80;4.45;;;;;;;;;;5046708;28;20042;-72
2023/03/20 04:57:34;;;;;;;6.28;4.57;;;;;;;;;;5035551;28;20490;-71
2023/03/20 04:59:59;;;;;;;5.43;4.40;;;;;;;;;;4985665;28;20045;-70
2023/03/20 05:02:26;;;;;;;6.07;4.55;;;;;;;;;;5018617;28;20284;-67
2023/03/20 05:04:51;;;;;;;6.38;4.45;;;;;;;;;;5021224;28;20120;-68
2023/03/20 05:07:16;;;;;;;6.30;4.68;;;;;;;;;;5029739;28;20608;-69
2023/03/20 05:09:41;;;;;;;7.17;5.00;;;;;;;;;;5016217;28;20036;-71
2023/03/20 05:12:07;;;;;;;7.32;5.20;;;;;;;;;;5041726;28;20276;-72
2023/03/20 05:14:32;;;;;;;6.10;4.60;;;;;;;;;;5012450;28;20162;-75
2023/03/20 05:16:57;;;;;;;5.87;4.63;;;;;;;;;;5017062;28;20714;-69
2023/03/20 05:19:23;;;;;;;5.03;4.20;;;;;;;;;;5030261;28;20435;-71
2023/03/20 05:21:48;;;;;;;6.47;4.75;;;;;;;;;;5044826;28;20663;-71
2023/03/20 05:24:13;;;;;;;5.87;4.33;;;;;;;;;;5006947;28;20041;-72
2023/03/20 05:26:39;;;;;;;5.97;4.50;;;;;;;;;;5008108;28;20761;-68
2023/03/20 05:29:04;;;;;;;6.00;4.72;;;;;;;;;;5018000;28;20633;-71
2023/03/20 05:31:29;;;;;;;6.80;5.32;;;;;;;;;;5029569;28;20057;-72
2023/03/20 05:33:56;;;;;;;5.85;4.40;;;;;;;;;;5016706;28;20049;-68
2023/03/20 05:36:21;;;;;;;7.13;4.55;;;;;;;;;;5026406;28;20033;-66
2023/03/20 05:38:46;;;;;;;6.55;4.70;;;;;;;;;;5031174;28;20486;-66
2023/03/20 05:41:12;;;;;;;5.87;4.73;;;;;;;;;;5008687;28;20022;-66
2023/03/20 05:43:37;;;;;;;6.33;4.63;;;;;;;;;;5024367;28;20376;-68
2023/03/20 05:46:02;;;;;;;5.83;4.50;;;;;;;;;;5042114;28;20843;-69
2023/03/20 05:48:27;;;;;;;6.22;4.30;;;;;;;;;;5021034;28;20657;-64
2023/03/20 05:50:53;;;;;;;5.40;4.37;;;;;;;;;;5010688;28;20412;-70
2023/03/20 05:53:18;;;;;;;6.63;4.90;;;;;;;;;;5016893;28;20318;-71
2023/03/20 05:55:43;;;;;;;6.00;4.70;;;;;;;;;;5039252;28;20276;-72
2023/03/20 05:58:09;;;;;;;5.88;4.68;;;;;;;;;;5040227;28;20313;-69
2023/03/20 06:00:34;;;;;;;6.45;4.97;;;;;;;;;;5031159;28;20040;-70
2023/03/20 06:02:59;;;;;;;6.63;4.53;;;;;;;;;;5030962;28;20436;-67
2023/03/20 06:05:25;;;;;;;6.53;4.53;;;;;;;;;;5061997;28;20275;-70
2023/03/20 06:07:50;;;;;;;5.10;4.03;;;;;;;;;;5058798;28;20040;-72
2023/03/20 06:10:15;;;;;;;6.93;4.37;;;;;;;;;;5047474;28;20101;-72
2023/03/20 06:12:41;;;;;;;8.63;4.75;;;;;;;;;;5012879;28;20352;-69
2023/03/20 06:15:06;;;;;;;6.40;4.23;;;;;;;;;;5019669;28;20080;-69
2023/03/20 06:17:31;;;;;;;6.60;4.70;;;;;;;;;;5047115;28;20406;-71
2023/03/20 06:19:57;;;;;;;7.27;4.50;;;;;;;;;;5053222;28;20060;-68
2023/03/20 06:22:22;;;;;;;6.17;4.43;;;;;;;;;;5030573;28;20298;-70
2023/03/20 06:24:47;;;;;;;7.10;4.50;;;;;;;;;;5025912;28;20330;-71
2023/03/20 06:27:13;;;;;;;10.73;4.70;;;;;;;;;;5026436;28;21191;-65
2023/03/20 06:29:38;;;;;;;7.10;4.60;;;;;;;;;;5042877;28;20045;-69
2023/03/20 06:32:05;;;;;;;7.40;4.73;;;;;;;;;;5054292;28;20044;-67
2023/03/20 06:34:30;;;;;;;5.30;4.38;;;;;;;;;;5043210;28;20365;-69
2023/03/20 06:36:56;;;;;;;6.50;4.20;;;;;;;;;;5033896;28;20046;-65
2023/03/20 06:39:21;;;;;;;5.68;4.25;;;;;;;;;;5043699;28;20121;-64
2023/03/20 06:41:46;;;;;;;5.68;4.28;;;;;;;;;;5039082;28;20475;-68
2023/03/20 06:44:12;;;;;;;7.50;4.27;;;;;;;;;;5057800;28;20411;-68
2023/03/20 06:46:37;;;;;;;9.10;4.45;;;;;;;;;;5051453;28;20356;-67
2023/03/20 06:49:02;;;;;;;8.47;4.67;;;;;;;;;;5028260;28;20518;-69
2023/03/20 06:51:27;;;;;;;6.50;4.13;;;;;;;;;;5049392;28;20307;-68
2023/03/20 06:53:53;;;;;;;6.17;4.40;;;;;;;;;;5051110;28;20061;-68
2023/03/20 06:56:18;;;;;;;6.20;4.10;;;;;;;;;;5047772;28;20675;-69
2023/03/20 06:58:43;;;;;;;6.72;4.43;;;;;;;;;;5044438;28;20271;-71
2023/03/20 07:01:09;;;;;;;6.20;4.47;;;;;;;;;;5041712;28;20049;-65
2023/03/20 07:03:35;;;;;;;6.18;4.32;;;;;;;;;;5031224;28;20284;-65
2023/03/20 07:06:00;;;;;;;6.27;4.37;;;;;;;;;;5027723;28;20192;-67
2023/03/20 07:08:25;;;;;;;6.33;4.50;;;;;;;;;;5027917;28;20064;-66
2023/03/20 07:10:50;;;;;;;9.67;4.93;;;;;;;;;;5027544;28;20284;-67
2023/03/20 07:13:15;;;;;;;10.83;5.13;;;;;;;;;;5030136;28;20052;-68
2023/03/20 07:15:41;;;;;;;8.02;4.40;;;;;;;;;;5026211;28;20034;-67
2023/03/20 07:18:07;;;;;;;6.50;4.45;;;;;;;;;;5025632;28;20466;-67
2023/03/20 07:20:32;;;;;;;11.20;4.80;;;;;;;;;;5028114;28;20043;-67
2023/03/20 07:22:57;;;;;;;8.07;4.90;;;;;;;;;;5025927;28;20033;-67
2023/03/20 07:25:22;;;;;;;9.93;4.77;;;;;;;;;;5025399;28;20139;-67
2023/03/20 07:27:49;;;;;;;11.47;4.63;;;;;;;;;;5026285;28;20291;-66
2023/03/20 07:30:15;;;;;;;11.27;4.88;;;;;;;;;;5027967;28;20033;-67
2023/03/20 07:32:40;;;;;;;11.55;4.95;;;;;;;;;;5026044;28;20053;-69
2023/03/20 07:35:06;;;;;;;12.60;4.65;;;;;;;;;;5028507;28;20084;-70
2023/03/20 07:37:31;;;;;;;11.10;5.00;;;;;;;;;;5019668;28;20631;-65
2023/03/20 07:39:56;;;;;;;8.77;4.80;;;;;;;;;;5022401;28;20092;-68
2023/03/20 07:42:21;;;;;;;10.90;4.63;;;;;;;;;;5006051;28;20033;-68
2023/03/20 07:44:47;;;;;;;7.63;4.70;;;;;;;;;;5019829;28;20276;-69
2023/03/20 07:47:12;;;;;;;13.02;5.38;;;;;;;;;;5013568;28;20279;-67
2023/03/20 07:49:37;;;;;;;11.38;4.55;;;;;;;;;;5027366;28;20506;-67
2023/03/20 07:52:02;;;;;;;10.40;5.17;;;;;;;;;;5020967;28;20136;-68
2023/03/20 07:54:28;;;;;;;12.73;5.40;;;;;;;;;;5023133;28;21041;-65
2023/03/20 07:56:53;;;;;;;9.80;4.90;;;;;;;;;;5031788;28;20659;-67
2023/03/20 07:59:18;;;;;;;9.83;4.70;;;;;;;;;;5026481;28;20660;-68
2023/03/20 08:01:43;;;;;;;10.25;5.40;;;;;;;;;;5027740;28;20295;-68
2023/03/20 08:04:09;;;;;;;9.30;4.85;;;;;;;;;;5008047;28;20029;-64
2023/03/20 08:06:34;;;;;;;12.27;5.35;;;;;;;;;;5032498;28;20516;-68
2023/03/20 08:09:00;;;;;;;13.15;5.57;;;;;;;;;;5010656;28;20418;-68
2023/03/20 08:11:25;;;;;;;14.90;5.10;;;;;;;;;;5028359;28;20036;-67
2023/03/20 08:13:51;;;;;;;11.03;4.73;;;;;;;;;;5024794;28;20051;-65
2023/03/20 08:16:16;;;;;;;10.70;4.87;;;;;;;;;;5019091;28;20280;-63
2023/03/20 08:18:41;;;;;;;9.77;4.93;;;;;;;;;;5011607;28;20922;-65
2023/03/20 08:21:06;;;;;;;8.70;4.73;;;;;;;;;;5017603;28;20291;-65
2023/03/20 08:23:32;;;;;;;10.63;4.88;;;;;;;;;;5016376;28;20303;-66
2023/03/20 08:25:57;;;;;;;12.40;5.75;;;;;;;;;;5016523;28;20041;-66
2023/03/20 08:28:22;;;;;;;9.43;5.00;;;;;;;;;;5011557;28;20030;-67
2023/03/20 08:30:48;;;;;;;10.53;4.87;;;;;;;;;;4983630;28;20053;-70
2023/03/20 08:33:13;;;;;;;10.52;5.38;;;;;;;;;;4976142;28;20319;-68
2023/03/20 08:35:39;;;;;;;11.20;4.90;;;;;;;;;;5010542;28;20030;-65
2023/03/20 08:38:04;;;;;;;10.05;5.00;;;;;;;;;;5010656;28;20049;-69
2023/03/20 08:40:29;;;;;;;11.40;4.87;;;;;;;;;;5010134;28;20038;-70
2023/03/20 08:42:55;;;;;;;10.05;5.03;;;;;;;;;;4997201;28;20308;-63
2023/03/20 08:45:20;;;;;;;12.75;5.13;;;;;;;;;;5009875;28;20041;-69
2023/03/20 08:47:48;;;;;;;12.65;5.18;;;;;;;;;;5011965;28;20068;-67
2023/03/20 08:50:14;;;;;;;10.48;4.88;;;;;;;;;;5014049;28;20022;-66
2023/03/20 08:52:42;;;;;;;11.63;5.20;;;;;;;;;;5001301;28;20069;-68
2023/03/20 08:55:08;;;;;;;10.63;5.25;;;;;;;;;;5012191;28;20308;-66
2023/03/20 08:57:34;;;;;;;9.30;5.20;;;;;;;;;;5014020;28;20053;-71
2023/03/20 09:00:00;;;;;;;11.85;5.47;;;;;;;;;;4993902;28;20040;-70
2023/03/20 09:02:25;;;;;;;13.55;5.30;;;;;;;;;;5009639;28;20150;-70
2023/03/20 09:04:50;;;;;;;11.48;5.03;;;;;;;;;;5033016;28;20041;-64
2023/03/20 09:07:16;;;;;;;12.30;4.93;;;;;;;;;;5033901;28;20047;-65
2023/03/20 09:09:41;;;;;;;10.07;5.07;;;;;;;;;;5034022;28;20115;-67
2023/03/20 09:12:06;;;;;;;10.38;5.25;;;;;;;;;;5015502;28;20041;-68
2023/03/20 09:14:31;;;;;;;11.03;5.30;;;;;;;;;;5034657;28;20048;-68
2023/03/20 09:16:57;;;;;;;10.95;5.28;;;;;;;;;;5033939;28;20303;-64
2023/03/20 09:19:22;;;;;;;10.00;5.30;;;;;;;;;;5033224;28;20103;-69
2023/03/20 09:21:47;;;;;;;12.03;5.17;;;;;;;;;;5032631;28;20068;-67
2023/03/20 09:24:13;;;;;;;10.25;5.10;;;;;;;;;;5035065;28;22245;-68
2023/03/20 09:26:38;;;;;;;13.77;5.30;;;;;;;;;;5033641;28;20042;-69
2023/03/20 09:29:04;;;;;;;11.45;5.30;;;;;;;;;;5013997;28;20314;-66
2023/03/20 09:31:29;;;;;;;12.98;5.40;;;;;;;;;;5033737;28;20120;-66
2023/03/20 09:33:54;;;;;;;11.40;4.75;;;;;;;;;;5034911;28;20632;-70
2023/03/20 09:36:20;;;;;;;8.93;4.90;;;;;;;;;;5051136;28;20488;-70
2023/03/20 09:38:45;;;;;;;8.98;4.97;;;;;;;;;;5067219;28;20278;-69
2023/03/20 09:41:19;;;;;;;10.17;5.20;;;;;;;;;;5050659;28;20112;-69
2023/03/20 09:43:47;;;;;;;12.73;4.78;;;;;;;;;;5058527;28;20340;-67
2023/03/20 09:46:18;;;;;;;8.85;4.57;;;;;;;;;;5067715;28;20493;-71
2023/03/20 09:48:44;;;;;;;11.27;5.25;;;;;;;;;;5067517;28;20028;-72
2023/03/20 09:51:13;;;;;;;9.73;5.07;;;;;;;;;;5067334;28;20155;-70
2023/03/20 09:53:53;;;;;;;10.23;5.00;;;;;;;;;;5049636;28;20128;-71
2023/03/20 09:56:18;;;;;;;;;;;;;;;;;;5068256;28;20047;-71
2023/03/20 09:58:44;;;;;;;8.52;4.57;;;;;;;;;;5066756;28;19991;-71
2023/03/20 10:01:11;;;;;;;8.95;4.80;;;;;;;;;;5049380;28;20118;-71
2023/03/20 10:03:43;;;;;;;8.88;4.90;;;;;;;;;;5030471;28;20049;-66
2023/03/20 10:06:11;;;;;;;7.65;4.50;;;;;;;;;;5029387;28;20013;-71
2023/03/20 10:08:37;;;;;;;7.85;4.85;;;;;;;;;;5015417;28;20713;-70
2023/03/20 10:11:08;;;;;;;9.70;4.43;;;;;;;;;;5048860;28;20068;-67
2023/03/20 10:13:36;;;;;;;8.77;4.82;;;;;;;;;;5031531;28;20052;-67
2023/03/20 10:16:11;;;;;;;7.93;4.50;;;;;;;;;;5030048;28;20029;-69
2023/03/20 10:18:36;;;;;;;8.02;4.63;;;;;;;;;;5031521;28;20064;-65
2023/03/20 10:21:17;;;;;;;6.70;4.65;;;;;;;;;;5013974;28;21937;-64
2023/03/20 10:23:42;;;;;;;9.98;5.05;;;;;;;;;;5031916;28;20037;-68
2023/03/20 10:26:11;;;;;;;8.20;4.07;;;;;;;;;;5032641;28;20474;-70
2023/03/20 10:28:39;;;;;;;9.90;4.78;;;;;;;;;;5019692;28;20299;-69
2023/03/20 10:31:23;;;;;;;9.43;4.63;;;;;;;;;;5013693;28;20069;-66
2023/03/20 10:33:51;;;;;;;10.20;5.03;;;;;;;;;;5032819;28;20164;-67
2023/03/20 10:36:16;;;;;;;9.02;4.82;;;;;;;;;;5046797;28;20441;-67
2023/03/20 10:38:47;;;;;;;9.73;4.53;;;;;;;;;;5031856;28;20029;-65
2023/03/20 10:41:15;;;;;;;8.98;4.80;;;;;;;;;;5019708;28;20044;-67
2023/03/20 10:43:41;;;;;;;8.32;3.80;;;;;;;;;;5030099;28;20047;-66
2023/03/20 10:46:16;;;;;;;7.72;4.65;;;;;;;;;;5013259;28;20041;-64
2023/03/20 10:48:42;;;;;;;7.50;4.40;;;;;;;;;;5013567;28;20273;-67
2023/03/20 10:51:10;;;;;;;8.13;4.60;;;;;;;;;;5032372;28;20029;-68
2023/03/20 10:53:46;;;;;;;6.63;4.60;;;;;;;;;;4996104;28;20063;-67
2023/03/20 10:56:25;;;;;;;7.68;4.57;;;;;;;;;;5030944;28;20037;-67
2023/03/20 10:58:53;;;;;;;7.22;4.45;;;;;;;;;;5012628;28;20041;-67
2023/03/20 11:01:19;;;;;;;8.65;4.43;;;;;;;;;;5007673;28;20060;-67
2023/03/20 11:03:45;;;;;;;7.68;4.53;;;;;;;;;;4974984;28;20042;-69
2023/03/20 11:06:17;;;;;;;9.30;4.20;;;;;;;;;;4991375;28;20500;-67
2023/03/20 11:08:45;;;;;;;8.20;4.53;;;;;;;;;;4990739;28;20688;-71
2023/03/20 11:11:10;;;;;;;7.28;4.60;;;;;;;;;;4990693;28;20034;-65
2023/03/20 11:13:45;;;;;;;7.57;4.40;;;;;;;;;;4992542;28;20058;-64
2023/03/20 11:16:29;;;;;;;5.78;3.67;;;;;;;;;;4971822;28;20897;-66
2023/03/20 11:18:55;;;;;;;7.68;4.28;;;;;;;;;;4972805;28;20053;-66
2023/03/20 11:21:22;;;;;;;6.25;4.30;;;;;;;;;;4992134;28;20482;-67
2023/03/20 11:23:47;;;;;;;6.88;4.40;;;;;;;;;;4978017;28;20093;-67
2023/03/20 11:26:15;;;;;;;7.13;4.40;;;;;;;;;;5009429;28;20181;-67
2023/03/20 11:28:41;;;;;;;7.00;4.35;;;;;;;;;;4999151;28;20038;-66
2023/03/20 11:31:14;;;;;;;8.13;4.18;;;;;;;;;;4991121;28;20047;-63
2023/03/20 11:33:40;;;;;;;7.45;4.18;;;;;;;;;;5011223;28;20042;-66
2023/03/20 11:36:09;;;;;;;7.38;4.60;;;;;;;;;;4981833;28;20057;-66
2023/03/20 11:38:34;;;;;;;8.30;4.57;;;;;;;;;;5010254;28;20037;-65
2023/03/20 11:41:00;;;;;;;7.03;4.47;;;;;;;;;;4991235;28;20839;-67
2023/03/20 11:43:25;;;;;;;6.30;4.20;;;;;;;;;;4992004;28;20047;-65
2023/03/20 11:45:54;;;;;;;8.18;4.68;;;;;;;;;;5011730;28;20821;-67
2023/03/20 11:48:21;;;;;;;6.28;4.07;;;;;;;;;;5011121;28;20122;-67
2023/03/20 11:50:47;;;;;;;6.05;4.70;;;;;;;;;;4990118;28;20085;-67
2023/03/20 11:53:18;;;;;;;7.55;4.50;;;;;;;;;;4993206;28;20042;-68
2023/03/20 11:55:44;;;;;;;7.38;4.10;;;;;;;;;;5010984;28;20106;-66
2023/03/20 11:58:10;;;;;;;6.20;4.35;;;;;;;;;;5011554;28;20045;-67
2023/03/20 12:00:36;;;;;;;6.45;3.97;;;;;;;;;;4991462;28;20064;-67
2023/03/20 12:03:02;;;;;;;6.15;4.20;;;;;;;;;;4993707;28;20497;-68
2023/03/20 12:05:35;;;;;;;7.25;4.20;;;;;;;;;;5030775;28;20045;-63
2023/03/20 12:08:01;;;;;;;6.53;3.90;;;;;;;;;;5018300;28;20072;-66
2023/03/20 12:10:28;;;;;;;7.15;4.00;;;;;;;;;;5012832;28;20312;-66
2023/03/20 12:12:54;;;;;;;6.15;4.05;;;;;;;;;;5010834;28;20034;-68
2023/03/20 12:15:24;;;;;;;7.43;4.18;;;;;;;;;;5011449;28;20058;-66
2023/03/20 12:18:02;;;;;;;6.50;4.32;;;;;;;;;;5031387;28;20033;-65
2023/03/20 12:20:53;;;;;;;6.72;4.28;;;;;;;;;;5018570;28;20529;-65
2023/03/20 12:23:25;;;;;;;5.07;3.70;;;;;;;;;;4993701;28;20033;-67
2023/03/20 12:25:54;;;;;;;5.93;3.88;;;;;;;;;;5029899;28;20076;-66
2023/03/20 12:28:22;;;;;;;6.30;3.80;;;;;;;;;;5031010;28;20045;-69
2023/03/20 12:30:47;;;;;;;4.97;3.90;;;;;;;;;;5030107;28;20044;-69
2023/03/20 12:33:20;;;;;;;6.27;3.70;;;;;;;;;;5029999;28;20079;-67
2023/03/20 12:35:46;;;;;;;5.55;3.95;;;;;;;;;;5011452;28;20310;-67
2023/03/20 12:38:30;;;;;;;6.18;3.97;;;;;;;;;;5010580;28;20621;-67
2023/03/20 12:41:22;;;;;;;5.22;3.95;;;;;;;;;;5029048;28;20029;-68
2023/03/20 12:43:56;;;;;;;5.93;4.03;;;;;;;;;;5012909;28;20030;-66
2023/03/20 12:46:40;;;;;;;7.32;3.95;;;;;;;;;;5011409;28;20041;-68
2023/03/20 12:49:11;;;;;;;5.22;3.78;;;;;;;;;;5028699;28;20044;-66
2023/03/20 12:52:03;;;;;;;5.53;3.90;;;;;;;;;;5017305;28;20459;-64
2023/03/20 12:54:31;;;;;;;5.55;4.00;;;;;;;;;;5022871;28;20053;-64
2023/03/20 12:57:11;;;;;;;6.10;3.95;;;;;;;;;;5029043;28;20572;-65
2023/03/20 12:59:36;;;;;;;;;;;;;;;;;;4994514;28;20049;-64
2023/03/20 13:02:16;;;;;;;5.90;3.90;;;;;;;;;;5030547;28;19932;-64
2023/03/20 13:04:42;;;;;;;6.35;4.05;;;;;;;;;;5010824;28;20473;-66
2023/03/20 13:07:13;;;;;;;6.27;3.73;;;;;;;;;;5029226;28;20032;-64
2023/03/20 13:09:51;;;;;;;5.70;3.72;;;;;;;;;;5029265;28;20037;-69
2023/03/20 13:12:19;;;;;;;5.75;4.05;;;;;;;;;;5030165;28;20144;-67
2023/03/20 13:14:47;;;;;;;5.30;4.07;;;;;;;;;;5029827;28;20043;-66
2023/03/20 13:17:12;;;;;;;5.85;3.83;;;;;;;;;;5028897;28;20021;-68
2023/03/20 13:19:53;;;;;;;5.00;3.50;;;;;;;;;;5030695;28;20032;-68
2023/03/20 13:22:20;;;;;;;6.07;3.90;;;;;;;;;;5029179;28;20306;-65
2023/03/20 13:24:45;;;;;;;5.68;4.00;;;;;;;;;;5009785;28;20409;-67
2023/03/20 13:27:29;;;;;;;4.95;3.22;;;;;;;;;;5010985;28;20053;-69
2023/03/20 13:29:57;;;;;;;6.35;3.90;;;;;;;;;;5004345;28;20065;-66
2023/03/20 13:32:34;;;;;;;5.93;3.78;;;;;;;;;;5044325;28;20049;-68
2023/03/20 13:35:03;;;;;;;5.43;3.78;;;;;;;;;;5062835;28;20044;-69
2023/03/20 13:37:32;;;;;;;5.22;3.72;;;;;;;;;;5049928;28;20178;-67
2023/03/20 13:40:12;;;;;;;6.53;3.80;;;;;;;;;;5061102;28;20052;-64
2023/03/20 13:42:41;;;;;;;7.13;3.80;;;;;;;;;;5009668;28;20128;-70
2023/03/20 13:45:13;;;;;;;9.38;3.78;;;;;;;;;;5009740;28;20061;-67
2023/03/20 13:47:39;;;;;;;9.68;3.67;;;;;;;;;;5010650;28;20045;-70
2023/03/20 13:50:13;;;;;;;5.88;3.70;;;;;;;;;;5042635;28;20052;-67
2023/03/20 13:52:41;;;;;;;6.05;3.78;;;;;;;;;;5049995;28;20037;-67
2023/03/20 13:55:13;;;;;;;4.80;3.40;;;;;;;;;;5053477;28;20160;-65
2023/03/20 13:57:47;;;;;;;6.55;3.30;;;;;;;;;;5042235;28;20042;-71
2023/03/20 14:00:30;;;;;;;7.60;3.78;;;;;;;;;;5055804;28;20052;-63
2023/03/20 14:02:56;;;;;;;5.32;2.88;;;;;;;;;;5061482;28;24934;-66
2023/03/20 14:05:22;;;;;;;5.45;3.40;;;;;;;;;;5049283;28;20510;-66
2023/03/20 14:07:47;;;;;;;5.68;3.20;;;;;;;;;;4998611;28;20025;-70
2023/03/20 14:10:22;;;;;;;5.38;3.42;;;;;;;;;;5032390;28;20021;-73
2023/03/20 14:12:54;;;;;;;4.35;2.88;;;;;;;;;;5067275;28;20405;-69
2023/03/20 14:15:20;;;;;;;5.75;3.38;;;;;;;;;;5024175;28;20045;-68
2023/03/20 14:17:45;;;;;;;3.97;2.65;;;;;;;;;;5052383;28;20083;-68
2023/03/20 14:20:12;;;;;;;6.55;3.00;;;;;;;;;;5042307;28;20028;-70
2023/03/20 14:22:37;;;;;;;5.00;3.33;;;;;;;;;;5067094;28;20432;-71
2023/03/20 14:25:14;;;;;;;4.35;2.80;;;;;;;;;;5036382;28;20124;-71
2023/03/20 14:27:53;;;;;;;5.55;3.13;;;;;;;;;;5025273;28;20036;-71
2023/03/20 14:30:30;;;;;;;5.43;3.33;;;;;;;;;;5066891;28;20048;-68
2023/03/20 14:32:59;;;;;;;5.15;3.30;;;;;;;;;;5066562;28;20033;-69
2023/03/20 14:35:28;;;;;;;5.43;2.85;;;;;;;;;;5047859;28;20048;-68
2023/03/20 14:37:53;;;;;;;4.05;2.83;;;;;;;;;;5066075;28;20146;-69
2023/03/20 14:40:19;;;;;;;4.60;3.10;;;;;;;;;;5066550;28;20084;-69
2023/03/20 14:42:54;;;;;;;5.97;3.08;;;;;;;;;;5058020;28;20037;-66
2023/03/20 14:45:28;;;;;;;5.65;2.80;;;;;;;;;;5059046;28;20504;-69
2023/03/20 14:47:57;;;;;;;6.00;2.97;;;;;;;;;;5038706;28;20166;-69